createdAt,value
2022-11-27T00:01:54.240Z,-2.30
2022-11-27T00:04:20.968Z,0.60
2022-11-27T00:06:47.676Z,3.70
2022-11-27T00:09:14.802Z,3.00
2022-11-27T00:11:41.682Z,2.90
2022-11-27T00:14:10.451Z,0.50
2022-11-27T00:16:37.204Z,0.00
2022-11-27T00:19:03.912Z,0.60
2022-11-27T00:21:32.253Z,2.80
2022-11-27T00:23:59.388Z,0.50
2022-11-27T00:26:26.489Z,0.70
2022-11-27T00:28:54.748Z,0.60
2022-11-27T00:31:22.374Z,3.00
2022-11-27T00:33:49.214Z,-2.60
2022-11-27T00:36:15.968Z,3.10
2022-11-27T00:38:42.758Z,0.50
2022-11-27T00:41:10.201Z,0.60
2022-11-27T00:43:43.948Z,0.50
2022-11-27T00:46:18.391Z,0.60
2022-11-27T00:48:45.146Z,0.60
2022-11-27T00:51:13.502Z,0.50
2022-11-27T00:53:40.281Z,-1.30
2022-11-27T00:56:07.199Z,2.60
2022-11-27T00:58:33.888Z,0.60
2022-11-27T01:01:03.443Z,2.90
2022-11-27T01:03:30.219Z,0.40
2022-11-27T01:05:56.986Z,2.80
2022-11-27T01:08:23.706Z,0.40
2022-11-27T01:10:55.252Z,0.80
2022-11-27T01:13:25.736Z,0.50
2022-11-27T01:16:02.823Z,1.70
2022-11-27T01:18:29.734Z,0.50
2022-11-27T01:20:56.475Z,1.80
2022-11-27T01:23:23.422Z,0.10
2022-11-27T01:25:50.329Z,-2.20
2022-11-27T01:28:17.157Z,0.20
2022-11-27T01:30:44.087Z,3.50
2022-11-27T01:33:10.988Z,0.30
2022-11-27T01:35:37.674Z,0.70
2022-11-27T01:38:04.406Z,0.00
2022-11-27T01:40:31.165Z,-0.30
2022-11-27T01:42:57.903Z,0.30
2022-11-27T01:45:24.660Z,0.40
2022-11-27T01:47:53.000Z,-0.10
2022-11-27T01:50:31.200Z,0.30
2022-11-27T01:52:59.483Z,0.00
2022-11-27T01:55:43.161Z,0.30
2022-11-27T01:58:10.961Z,0.20
2022-11-27T02:00:38.075Z,3.10
2022-11-27T02:03:04.917Z,0.20
2022-11-27T02:05:31.734Z,2.90
2022-11-27T02:07:58.928Z,0.30
2022-11-27T02:10:30.280Z,3.40
2022-11-27T02:12:58.806Z,0.20
2022-11-27T02:15:41.526Z,3.00
2022-11-27T02:18:14.144Z,0.40
2022-11-27T02:21:03.960Z,0.40
2022-11-27T02:23:49.210Z,0.40
2022-11-27T02:26:30.210Z,0.30
2022-11-27T02:28:56.939Z,0.30
2022-11-27T02:31:23.684Z,0.10
2022-11-27T02:33:51.923Z,0.20
2022-11-27T02:36:19.613Z,1.30
2022-11-27T02:38:52.053Z,0.10
2022-11-27T02:41:24.838Z,2.70
2022-11-27T02:43:51.602Z,0.20
2022-11-27T02:46:18.792Z,0.50
2022-11-27T02:48:52.391Z,0.10
2022-11-27T02:51:23.178Z,0.20
2022-11-27T02:53:51.146Z,0.20
2022-11-27T02:56:18.526Z,2.30
2022-11-27T02:58:45.559Z,0.20
2022-11-27T03:01:12.726Z,-0.70
2022-11-27T03:03:41.523Z,2.10
2022-11-27T03:06:09.296Z,2.30
2022-11-27T03:08:41.353Z,2.10
2022-11-27T03:11:11.765Z,1.60
2022-11-27T03:13:40.584Z,2.60
2022-11-27T03:16:17.045Z,0.60
2022-11-27T03:18:45.551Z,0.30
2022-11-27T03:21:18.975Z,0.10
2022-11-27T03:23:45.689Z,0.30
2022-11-27T03:26:12.433Z,0.00
2022-11-27T03:28:39.127Z,1.40
2022-11-27T03:31:05.922Z,0.10
2022-11-27T03:33:32.692Z,0.20
2022-11-27T03:35:59.446Z,-0.10
2022-11-27T03:38:26.168Z,2.00
2022-11-27T03:41:02.549Z,1.90
2022-11-27T03:43:29.892Z,-2.10
2022-11-27T03:45:56.717Z,3.80
2022-11-27T03:48:24.798Z,1.80
2022-11-27T03:50:54.752Z,0.10
2022-11-27T03:53:33.691Z,2.10
2022-11-27T03:56:10.339Z,0.40
2022-11-27T03:58:52.211Z,2.40
2022-11-27T04:01:19.676Z,0.50
2022-11-27T04:03:46.559Z,2.10
2022-11-27T04:06:13.341Z,2.90
2022-11-27T04:08:42.001Z,2.70
2022-11-27T04:11:09.136Z,0.60
2022-11-27T04:13:35.866Z,0.40
2022-11-27T04:16:02.746Z,0.50
2022-11-27T04:18:29.643Z,3.50
2022-11-27T04:20:56.449Z,0.40
2022-11-27T04:23:23.185Z,0.70
2022-11-27T04:25:50.002Z,0.50
2022-11-27T04:28:19.735Z,0.30
2022-11-27T04:30:50.552Z,0.70
2022-11-27T04:33:17.287Z,3.00
2022-11-27T04:35:44.034Z,2.50
2022-11-27T04:38:10.874Z,-0.90
2022-11-27T04:40:37.649Z,0.50
2022-11-27T04:43:04.417Z,0.60
2022-11-27T04:45:31.135Z,1.90
2022-11-27T04:47:57.884Z,3.10
2022-11-27T04:50:24.595Z,3.40
2022-11-27T04:52:51.335Z,1.10
2022-11-27T04:55:18.033Z,2.20
2022-11-27T04:57:44.830Z,0.90
2022-11-27T05:00:11.905Z,4.00
2022-11-27T05:02:39.590Z,0.90
2022-11-27T05:05:06.497Z,1.00
2022-11-27T05:07:33.320Z,1.00
2022-11-27T05:10:00.118Z,0.10
2022-11-27T05:12:26.856Z,1.00
2022-11-27T05:14:53.578Z,-0.40
2022-11-27T05:17:20.292Z,1.00
2022-11-27T05:19:47.116Z,3.60
2022-11-27T05:22:13.850Z,3.90
2022-11-27T05:24:40.931Z,4.60
2022-11-27T05:27:07.876Z,1.10
2022-11-27T05:29:34.603Z,1.30
2022-11-27T05:32:01.494Z,1.10
2022-11-27T05:34:28.263Z,1.30
2022-11-27T05:36:55.496Z,4.30
2022-11-27T05:39:22.206Z,5.00
2022-11-27T05:41:48.972Z,2.70
2022-11-27T05:44:15.717Z,2.90
2022-11-27T05:46:45.679Z,1.30
2022-11-27T05:49:13.172Z,4.30
2022-11-27T05:51:39.998Z,2.70
2022-11-27T05:54:09.789Z,3.90
2022-11-27T05:56:36.541Z,1.10
2022-11-27T05:59:03.277Z,0.00
2022-11-27T06:01:30.065Z,1.30
2022-11-27T06:03:56.852Z,1.90
2022-11-27T06:06:23.567Z,2.20
2022-11-27T06:08:50.312Z,2.80
2022-11-27T06:11:17.996Z,4.20
2022-11-27T06:13:45.005Z,2.50
2022-11-27T06:16:12.879Z,1.10
2022-11-27T06:18:39.681Z,3.70
2022-11-27T06:21:10.081Z,4.10
2022-11-27T06:23:37.012Z,1.50
2022-11-27T06:26:17.214Z,3.50
2022-11-27T06:28:44.109Z,1.60
2022-11-27T06:31:17.313Z,3.30
2022-11-27T06:33:44.952Z,3.30
2022-11-27T06:36:11.691Z,4.90
2022-11-27T06:38:38.637Z,0.00
2022-11-27T06:41:09.651Z,1.20
2022-11-27T06:43:36.371Z,0.30
2022-11-27T06:46:03.459Z,3.40
2022-11-27T06:48:30.536Z,2.70
2022-11-27T06:51:00.912Z,1.20
2022-11-27T06:53:28.133Z,1.60
2022-11-27T06:55:54.949Z,3.50
2022-11-27T06:58:23.510Z,2.70
2022-11-27T07:00:57.022Z,3.60
2022-11-27T07:03:24.709Z,3.10
2022-11-27T07:05:51.432Z,1.90
2022-11-27T07:08:18.239Z,3.60
2022-11-27T07:10:44.952Z,1.10
2022-11-27T07:13:11.673Z,1.70
2022-11-27T07:15:38.412Z,4.50
2022-11-27T07:18:05.267Z,5.70
2022-11-27T07:20:32.325Z,1.70
2022-11-27T07:22:59.091Z,5.10
2022-11-27T07:25:25.815Z,5.40
2022-11-27T07:27:52.609Z,5.30
2022-11-27T07:30:19.334Z,3.70
2022-11-27T07:32:46.087Z,4.30
2022-11-27T07:35:12.946Z,2.50
2022-11-27T07:37:39.715Z,3.10
2022-11-27T07:40:06.795Z,2.60
2022-11-27T07:42:38.376Z,3.10
2022-11-27T07:45:07.288Z,4.70
2022-11-27T07:47:34.078Z,3.30
2022-11-27T07:50:00.858Z,6.10
2022-11-27T07:52:27.770Z,5.50
2022-11-27T07:54:54.555Z,1.90
2022-11-27T07:57:21.396Z,4.60
2022-11-27T07:59:48.242Z,3.70
2022-11-27T08:02:15.108Z,5.80
2022-11-27T08:04:42.471Z,4.50
2022-11-27T08:07:09.748Z,3.60
2022-11-27T08:09:37.883Z,3.70
2022-11-27T08:12:04.857Z,3.70
2022-11-27T08:14:31.847Z,3.80
2022-11-27T08:16:58.761Z,3.80
2022-11-27T08:19:25.538Z,5.20
2022-11-27T08:21:52.443Z,3.80
2022-11-27T08:24:19.345Z,3.90
2022-11-27T08:26:46.161Z,3.80
2022-11-27T08:29:13.055Z,3.90
2022-11-27T08:31:40.087Z,4.90
2022-11-27T08:34:06.976Z,3.70
2022-11-27T08:36:33.776Z,5.40
2022-11-27T08:39:00.710Z,3.70
2022-11-27T08:41:27.473Z,3.70
2022-11-27T08:43:54.333Z,6.70
2022-11-27T08:46:21.107Z,3.80
2022-11-27T08:48:48.003Z,4.10
2022-11-27T08:51:14.996Z,3.90
2022-11-27T08:53:41.927Z,5.60
2022-11-27T08:56:09.942Z,5.50
2022-11-27T08:58:36.849Z,4.20
2022-11-27T09:01:10.188Z,4.60
2022-11-27T09:03:37.394Z,4.50
2022-11-27T09:06:06.576Z,6.80
2022-11-27T09:08:33.370Z,6.00
2022-11-27T09:11:01.330Z,3.10
2022-11-27T09:13:28.226Z,7.30
2022-11-27T09:15:55.820Z,5.20
2022-11-27T09:18:22.583Z,5.20
2022-11-27T09:20:56.266Z,3.30
2022-11-27T09:23:23.052Z,2.60
2022-11-27T09:25:49.832Z,5.40
2022-11-27T09:28:16.794Z,8.00
2022-11-27T09:30:43.663Z,6.50
2022-11-27T09:33:10.413Z,7.00
2022-11-27T09:35:37.825Z,3.60
2022-11-27T09:38:04.840Z,5.10
2022-11-27T09:40:31.699Z,5.40
2022-11-27T09:43:02.968Z,7.80
2022-11-27T09:45:29.751Z,5.30
2022-11-27T09:47:57.974Z,2.20
2022-11-27T09:50:28.988Z,7.70
2022-11-27T09:53:20.577Z,5.40
2022-11-27T09:55:48.765Z,5.40
2022-11-27T09:58:15.550Z,7.00
2022-11-27T10:00:45.587Z,5.40
2022-11-27T10:03:16.846Z,5.50
2022-11-27T10:05:48.366Z,4.80
2022-11-27T10:08:27.354Z,5.50
2022-11-27T10:10:57.099Z,5.50
2022-11-27T10:13:34.353Z,6.40
2022-11-27T10:16:07.670Z,3.50
2022-11-27T10:18:37.470Z,5.60
2022-11-27T10:21:08.277Z,5.70
2022-11-27T10:24:05.304Z,5.70
2022-11-27T10:26:44.379Z,5.80
2022-11-27T10:29:14.330Z,5.80
2022-11-27T10:31:48.650Z,5.80
2022-11-27T10:34:27.841Z,5.90
2022-11-27T10:36:54.674Z,6.00
2022-11-27T10:39:25.601Z,8.80
2022-11-27T10:41:54.207Z,6.10
2022-11-27T10:44:28.188Z,8.80
2022-11-27T10:46:57.038Z,6.30
2022-11-27T10:49:23.782Z,6.40
2022-11-27T10:51:50.746Z,5.60
2022-11-27T10:54:26.504Z,6.50
2022-11-27T10:57:01.263Z,6.50
2022-11-27T10:59:33.185Z,6.70
2022-11-27T11:02:03.916Z,3.50
2022-11-27T11:04:37.859Z,9.40
2022-11-27T11:07:18.192Z,6.90
2022-11-27T11:09:47.012Z,9.40
2022-11-27T11:12:21.562Z,7.00
2022-11-27T11:14:55.405Z,7.00
2022-11-27T11:17:24.226Z,7.00
2022-11-27T11:19:51.217Z,9.10
2022-11-27T11:22:18.051Z,6.90
2022-11-27T11:24:48.488Z,6.90
2022-11-27T11:27:16.264Z,6.90
2022-11-27T11:29:47.085Z,9.80
2022-11-27T11:32:21.725Z,7.00
2022-11-27T11:35:01.187Z,6.90
2022-11-27T11:37:28.271Z,6.90
2022-11-27T11:39:56.267Z,8.90
2022-11-27T11:42:27.225Z,6.80
2022-11-27T11:44:55.043Z,6.90
2022-11-27T11:47:26.594Z,7.30
2022-11-27T11:49:53.767Z,8.00
2022-11-27T11:52:56.094Z,5.20
2022-11-27T11:55:25.871Z,7.20
2022-11-27T11:58:03.361Z,7.30
2022-11-27T12:00:48.671Z,7.30
2022-11-27T12:03:26.946Z,7.40
2022-11-27T12:06:19.966Z,7.40
2022-11-27T12:08:59.120Z,7.40
2022-11-27T12:11:46.350Z,10.90
2022-11-27T12:14:16.131Z,5.90
2022-11-27T12:16:46.128Z,11.00
2022-11-27T12:19:33.245Z,7.60
2022-11-27T12:22:37.655Z,10.00
2022-11-27T12:25:17.452Z,7.70
2022-11-27T12:27:47.271Z,7.70
2022-11-27T12:30:23.888Z,7.80
2022-11-27T12:32:50.611Z,7.80
2022-11-27T12:35:21.501Z,6.50
2022-11-27T12:38:07.306Z,10.60
2022-11-27T12:40:52.805Z,7.80
2022-11-27T12:43:26.269Z,7.80
2022-11-27T12:46:05.396Z,7.80
2022-11-27T12:48:36.760Z,7.80
2022-11-27T12:51:05.038Z,7.60
2022-11-27T12:53:35.119Z,10.70
2022-11-27T12:56:01.949Z,7.70
2022-11-27T12:58:30.473Z,9.00
2022-11-27T13:01:01.747Z,7.70
2022-11-27T13:03:34.941Z,7.70
2022-11-27T13:06:12.352Z,4.60
2022-11-27T13:08:55.655Z,7.60
2022-11-27T13:11:26.653Z,7.60
2022-11-27T13:14:02.329Z,7.60
2022-11-27T13:16:34.426Z,7.60
2022-11-27T13:19:20.329Z,7.50
2022-11-27T13:21:47.106Z,7.60
2022-11-27T13:24:13.909Z,9.20
2022-11-27T13:26:40.631Z,7.50
2022-11-27T13:29:08.606Z,9.90
2022-11-27T13:35:31.910Z,7.50
2022-11-27T13:38:17.533Z,7.50
2022-11-27T13:40:45.125Z,7.50
2022-11-27T13:43:34.715Z,9.20
2022-11-27T13:46:03.810Z,6.40
2022-11-27T13:48:34.419Z,11.00
2022-11-27T13:51:01.181Z,7.50
2022-11-27T13:53:35.342Z,8.50
2022-11-27T13:56:02.215Z,7.40
2022-11-27T13:58:29.739Z,7.40
2022-11-27T14:00:56.555Z,8.80
2022-11-27T14:03:23.396Z,7.40
2022-11-27T14:05:50.243Z,7.40
2022-11-27T14:08:17.928Z,9.70
2022-11-27T14:10:53.710Z,5.50
2022-11-27T14:13:24.883Z,7.30
2022-11-27T14:16:01.609Z,6.20
2022-11-27T14:18:28.968Z,7.30
2022-11-27T14:21:02.465Z,7.30
2022-11-27T14:23:29.314Z,7.30
2022-11-27T14:26:07.669Z,10.10
2022-11-27T14:28:37.497Z,7.30
2022-11-27T14:31:04.258Z,4.50
2022-11-27T14:33:33.252Z,7.30
2022-11-27T14:36:06.674Z,6.90
2022-11-27T14:38:34.912Z,7.20
2022-11-27T14:41:09.340Z,7.20
2022-11-27T14:43:36.104Z,7.20
2022-11-27T14:46:02.988Z,7.10
2022-11-27T14:48:49.888Z,9.50
2022-11-27T14:51:17.716Z,7.10
2022-11-27T14:53:48.005Z,8.50
2022-11-27T14:56:14.908Z,7.10
2022-11-27T14:58:44.399Z,9.50
2022-11-27T15:01:19.439Z,7.20
2022-11-27T15:03:54.823Z,10.90
2022-11-27T15:06:21.670Z,7.20
2022-11-27T15:08:58.055Z,10.10
2022-11-27T15:11:55.085Z,9.00
2022-11-27T15:14:22.055Z,10.00
2022-11-27T15:16:49.751Z,7.30
2022-11-27T15:19:17.691Z,7.40
2022-11-27T15:21:44.414Z,7.30
2022-11-27T15:24:46.760Z,9.30
2022-11-27T15:27:20.354Z,5.60
2022-11-27T15:29:50.082Z,7.20
2022-11-27T15:32:22.967Z,7.10
2022-11-27T15:34:50.647Z,9.20
2022-11-27T15:37:21.883Z,7.30
2022-11-27T15:39:55.342Z,4.70
2022-11-27T15:42:22.375Z,7.00
2022-11-27T15:44:49.774Z,9.40
2022-11-27T15:47:23.445Z,7.00
2022-11-27T15:49:50.656Z,7.00
2022-11-27T15:52:17.437Z,7.00
2022-11-27T15:54:44.335Z,9.60
2022-11-27T15:57:11.455Z,9.60
2022-11-27T15:59:38.263Z,9.40
2022-11-27T16:02:05.178Z,6.90
2022-11-27T16:04:31.916Z,9.70
2022-11-27T16:06:58.748Z,7.60
2022-11-27T16:09:25.511Z,8.30
2022-11-27T16:11:52.233Z,7.00
2022-11-27T16:14:18.947Z,5.40
2022-11-27T16:16:45.871Z,9.40
2022-11-27T16:19:14.765Z,6.90
2022-11-27T16:21:41.540Z,7.00
2022-11-27T16:24:09.323Z,6.20
2022-11-27T16:26:38.063Z,7.00
2022-11-27T16:29:07.703Z,7.10
2022-11-27T16:31:34.750Z,9.30
2022-11-27T16:34:03.487Z,6.10
2022-11-27T16:36:30.227Z,7.00
2022-11-27T16:38:57.112Z,7.30
2022-11-27T16:41:24.547Z,7.20
2022-11-27T16:43:54.498Z,9.60
2022-11-27T16:46:22.070Z,7.20
2022-11-27T16:48:48.981Z,8.50
2022-11-27T16:51:17.895Z,7.30
2022-11-27T16:53:46.766Z,9.30
2022-11-27T16:56:14.660Z,7.30
2022-11-27T16:58:42.000Z,7.30
2022-11-27T17:01:09.554Z,7.30
2022-11-27T17:03:36.633Z,9.90
2022-11-27T17:06:07.107Z,7.30
2022-11-27T17:08:33.848Z,7.30
2022-11-27T17:11:08.650Z,5.80
2022-11-27T17:13:35.646Z,10.40
2022-11-27T17:16:03.404Z,7.30
2022-11-27T17:18:30.321Z,9.70
2022-11-27T17:21:01.378Z,6.40
2022-11-27T17:23:28.838Z,7.20
2022-11-27T17:25:55.563Z,7.20
2022-11-27T17:28:22.789Z,10.40
2022-11-27T17:30:49.515Z,7.20
2022-11-27T17:33:16.680Z,10.30
2022-11-27T17:35:43.467Z,7.20
2022-11-27T17:38:10.811Z,9.60
2022-11-27T17:40:37.631Z,7.30
2022-11-27T17:43:04.384Z,7.20
2022-11-27T17:45:31.199Z,7.20
2022-11-27T17:47:58.064Z,7.10
2022-11-27T17:50:24.867Z,7.30
2022-11-27T17:52:54.500Z,10.40
2022-11-27T17:55:21.652Z,6.20
2022-11-27T17:57:49.168Z,10.60
2022-11-27T18:00:18.577Z,7.30
2022-11-27T18:02:45.872Z,7.30
2022-11-27T18:05:13.949Z,6.50
2022-11-27T18:07:40.751Z,7.40
2022-11-27T18:10:09.842Z,7.40
2022-11-27T18:12:36.638Z,7.50
2022-11-27T18:15:03.672Z,7.50
2022-11-27T18:17:30.506Z,7.50
2022-11-27T18:19:58.966Z,7.50
2022-11-27T18:22:25.877Z,8.40
2022-11-27T18:24:52.676Z,7.60
2022-11-27T18:27:19.469Z,10.50
2022-11-27T18:29:47.207Z,6.30
2022-11-27T18:32:14.268Z,10.30
2022-11-27T18:34:41.132Z,7.70
2022-11-27T18:37:07.916Z,8.80
2022-11-27T18:39:35.333Z,5.70
2022-11-27T18:42:03.321Z,7.70
2022-11-27T18:44:30.285Z,7.80
2022-11-27T18:46:58.390Z,7.70
2022-11-27T18:49:25.191Z,8.40
2022-11-27T18:51:52.573Z,7.80
2022-11-27T18:54:19.970Z,7.80
2022-11-27T18:56:46.970Z,9.20
2022-11-27T18:59:14.066Z,7.90
2022-11-27T19:01:42.792Z,7.90
2022-11-27T19:04:10.453Z,8.00
2022-11-27T19:06:37.435Z,8.60
2022-11-27T19:09:04.372Z,8.00
2022-11-27T19:11:32.786Z,9.10
2022-11-27T19:13:59.809Z,8.00
2022-11-27T19:16:27.759Z,11.50
2022-11-27T19:18:58.321Z,8.00
2022-11-27T19:21:26.001Z,8.00
2022-11-27T19:23:55.184Z,8.90
2022-11-27T19:26:22.890Z,7.90
2022-11-27T19:28:50.179Z,7.90
2022-11-27T19:31:17.156Z,7.80
2022-11-27T19:33:44.236Z,8.10
2022-11-27T19:36:14.470Z,6.70
2022-11-27T19:38:41.619Z,7.90
2022-11-27T19:41:12.723Z,7.90
2022-11-27T19:43:39.576Z,7.90
2022-11-27T19:46:16.244Z,7.80
2022-11-27T19:48:43.247Z,7.70
2022-11-27T19:51:10.124Z,7.70
2022-11-27T19:53:37.731Z,9.00
2022-11-27T19:56:04.939Z,7.70
2022-11-27T19:58:32.409Z,7.60
2022-11-27T20:04:58.983Z,7.60
2022-11-27T20:07:25.990Z,7.50
2022-11-27T20:09:53.025Z,7.50
2022-11-27T20:12:20.110Z,10.10
2022-11-27T20:14:47.339Z,7.50
2022-11-27T20:17:14.099Z,10.00
2022-11-27T20:19:41.277Z,5.50
2022-11-27T20:22:08.232Z,8.40
2022-11-27T20:24:38.214Z,7.50
2022-11-27T20:27:11.439Z,7.50
2022-11-27T20:29:38.278Z,7.50
2022-11-27T20:32:05.144Z,9.40
2022-11-27T20:34:33.227Z,7.60
2022-11-27T20:37:00.409Z,7.90
2022-11-27T20:39:28.451Z,7.60
2022-11-27T20:41:55.375Z,10.40
2022-11-27T20:44:23.565Z,7.60
2022-11-27T20:46:50.532Z,10.30
2022-11-27T20:49:17.308Z,7.60
2022-11-27T20:51:44.231Z,8.80
2022-11-27T20:54:11.211Z,7.60
2022-11-27T20:56:38.327Z,10.00
2022-11-27T20:59:07.874Z,7.50
2022-11-27T21:01:35.508Z,9.90
2022-11-27T21:04:09.115Z,4.80
2022-11-27T21:06:41.925Z,9.40
2022-11-27T21:09:10.553Z,7.10
2022-11-27T21:11:37.498Z,9.10
2022-11-27T21:14:05.870Z,7.50
2022-11-27T21:16:33.964Z,9.80
2022-11-27T21:19:01.652Z,7.60
2022-11-27T21:21:28.550Z,9.30
2022-11-27T21:23:55.396Z,8.90
2022-11-27T21:26:22.539Z,7.70
2022-11-27T21:28:50.319Z,8.00
2022-11-27T21:31:17.906Z,7.30
2022-11-27T21:33:48.536Z,9.90
2022-11-27T21:36:15.471Z,7.70
2022-11-27T21:38:42.276Z,10.10
2022-11-27T21:41:09.349Z,7.70
2022-11-27T21:43:37.358Z,9.70
2022-11-27T21:46:07.797Z,7.60
2022-11-27T21:48:34.768Z,7.60
2022-11-27T21:51:02.157Z,7.60
2022-11-27T21:53:29.532Z,7.50
2022-11-27T21:55:57.516Z,8.60
2022-11-27T21:58:24.564Z,7.60
2022-11-27T22:00:51.387Z,7.60
2022-11-27T22:03:18.206Z,9.10
2022-11-27T22:05:44.914Z,7.60
2022-11-27T22:08:11.633Z,7.80
2022-11-27T22:10:39.462Z,5.80
2022-11-27T22:13:24.414Z,9.70
2022-11-27T22:15:52.284Z,7.70
2022-11-27T22:18:19.075Z,7.60
2022-11-27T22:20:45.779Z,7.70
2022-11-27T22:23:12.627Z,7.70
2022-11-27T22:25:39.362Z,9.90
2022-11-27T22:28:06.143Z,7.60
2022-11-27T22:30:32.904Z,8.90
2022-11-27T22:32:59.705Z,7.60
2022-11-27T22:35:26.491Z,7.60
2022-11-27T22:37:53.666Z,7.60
2022-11-27T22:40:20.790Z,9.00
2022-11-27T22:42:48.081Z,5.10
2022-11-27T22:45:15.040Z,6.40
2022-11-27T22:47:41.854Z,6.30
2022-11-27T22:50:08.767Z,10.40
2022-11-27T22:52:35.678Z,7.60
2022-11-27T22:55:02.561Z,10.00
2022-11-27T22:57:29.324Z,7.70
2022-11-27T22:59:56.138Z,10.60
2022-11-27T23:02:23.551Z,7.70
2022-11-27T23:04:50.319Z,10.80
2022-11-27T23:07:21.031Z,7.70
2022-11-27T23:09:50.659Z,9.00
2022-11-27T23:12:17.395Z,5.60
2022-11-27T23:14:44.497Z,10.00
2022-11-27T23:17:11.396Z,7.60
2022-11-27T23:19:38.139Z,9.90
2022-11-27T23:22:04.899Z,7.60
2022-11-27T23:24:31.621Z,10.30
2022-11-27T23:26:58.390Z,6.60
2022-11-27T23:29:25.271Z,9.60
2022-11-27T23:31:52.123Z,7.60
2022-11-27T23:34:18.935Z,10.20
2022-11-27T23:36:45.941Z,5.20
2022-11-27T23:39:12.875Z,9.20
2022-11-27T23:41:40.556Z,7.60
2022-11-27T23:44:07.772Z,10.30
2022-11-27T23:46:34.574Z,5.60
2022-11-27T23:49:01.377Z,10.20
2022-11-27T23:51:29.000Z,9.70
2022-11-27T23:53:55.889Z,7.60
2022-11-27T23:56:23.802Z,9.40
2022-11-27T23:58:50.552Z,7.60
